createdAt,value
2018-07-22T00:00:41.917Z,0.00
2018-07-22T00:01:41.898Z,0.00
2018-07-22T00:02:41.883Z,0.00
2018-07-22T00:03:41.867Z,0.00
2018-07-22T00:04:41.847Z,0.00
2018-07-22T00:05:41.831Z,0.00
2018-07-22T00:06:41.814Z,0.00
2018-07-22T00:07:41.800Z,0.00
2018-07-22T00:08:41.779Z,0.00
2018-07-22T00:09:41.764Z,0.00
2018-07-22T00:10:41.746Z,0.00
2018-07-22T00:11:41.730Z,0.00
2018-07-22T00:12:41.711Z,0.00
2018-07-22T00:13:41.695Z,0.00
2018-07-22T00:14:42.431Z,0.00
2018-07-22T00:15:41.661Z,0.00
2018-07-22T00:16:41.645Z,0.00
2018-07-22T00:17:41.628Z,0.00
2018-07-22T00:18:41.609Z,0.00
2018-07-22T00:19:41.592Z,0.00
2018-07-22T00:20:41.575Z,0.00
2018-07-22T00:21:41.559Z,0.00
2018-07-22T00:22:41.545Z,0.00
2018-07-22T00:23:41.525Z,0.00
2018-07-22T00:24:41.507Z,0.00
2018-07-22T00:25:41.491Z,0.00
2018-07-22T00:26:41.473Z,0.00
2018-07-22T00:27:41.454Z,0.00
2018-07-22T00:28:41.439Z,0.00
2018-07-22T00:29:41.422Z,0.00
2018-07-22T00:30:41.404Z,0.00
2018-07-22T00:31:41.386Z,0.00
2018-07-22T00:32:41.373Z,0.00
2018-07-22T00:33:41.353Z,0.00
2018-07-22T00:34:41.336Z,0.00
2018-07-22T00:35:41.320Z,0.00
2018-07-22T00:36:41.302Z,0.00
2018-07-22T00:37:41.286Z,0.00
2018-07-22T00:38:41.270Z,0.00
2018-07-22T00:39:41.252Z,0.00
2018-07-22T00:40:41.234Z,0.00
2018-07-22T00:41:41.216Z,0.00
2018-07-22T00:42:41.199Z,0.00
2018-07-22T00:43:41.181Z,0.00
2018-07-22T00:44:41.164Z,0.00
2018-07-22T00:45:41.148Z,0.00
2018-07-22T00:46:41.131Z,0.00
2018-07-22T00:47:41.112Z,0.00
2018-07-22T00:48:41.100Z,0.00
2018-07-22T00:49:41.078Z,0.00
2018-07-22T00:50:41.060Z,0.00
2018-07-22T00:51:41.792Z,0.00
2018-07-22T00:52:41.027Z,0.00
2018-07-22T00:53:41.009Z,0.00
2018-07-22T00:54:40.992Z,0.00
2018-07-22T00:55:40.974Z,0.00
2018-07-22T00:56:40.957Z,0.00
2018-07-22T00:57:40.939Z,0.00
2018-07-22T00:58:40.924Z,0.00
2018-07-22T00:59:40.904Z,0.00
2018-07-22T01:00:40.887Z,0.00
2018-07-22T01:01:40.869Z,0.00
2018-07-22T01:02:40.852Z,0.00
2018-07-22T01:03:40.835Z,0.00
2018-07-22T01:04:40.817Z,0.00
2018-07-22T01:05:40.800Z,0.00
2018-07-22T01:06:40.784Z,0.00
2018-07-22T01:07:43.016Z,0.00
2018-07-22T01:08:40.747Z,0.00
2018-07-22T01:09:40.730Z,0.00
2018-07-22T01:10:40.713Z,0.00
2018-07-22T01:11:40.695Z,0.00
2018-07-22T01:12:40.677Z,0.00
2018-07-22T01:13:40.661Z,0.00
2018-07-22T01:14:40.644Z,0.00
2018-07-22T01:15:40.624Z,0.00
2018-07-22T01:16:40.607Z,0.00
2018-07-22T01:17:40.590Z,0.00
2018-07-22T01:18:40.572Z,0.00
2018-07-22T01:19:40.554Z,0.00
2018-07-22T01:20:40.537Z,0.00
2018-07-22T01:21:40.519Z,0.00
2018-07-22T01:22:40.502Z,0.00
2018-07-22T01:23:40.483Z,0.00
2018-07-22T01:24:40.468Z,0.00
2018-07-22T01:25:40.448Z,0.00
2018-07-22T01:26:40.434Z,0.00
2018-07-22T01:27:40.413Z,0.00
2018-07-22T01:28:40.395Z,0.00
2018-07-22T01:29:41.879Z,0.00
2018-07-22T01:30:40.360Z,0.00
2018-07-22T01:31:40.341Z,0.00
2018-07-22T01:32:40.324Z,0.00
2018-07-22T01:33:40.307Z,0.00
2018-07-22T01:34:40.289Z,0.00
2018-07-22T01:35:40.274Z,0.00
2018-07-22T01:36:40.252Z,0.00
2018-07-22T01:37:40.235Z,0.00
2018-07-22T01:38:40.218Z,0.00
2018-07-22T01:39:40.199Z,0.00
2018-07-22T01:40:40.180Z,0.00
2018-07-22T01:41:40.164Z,0.00
2018-07-22T01:42:40.146Z,0.00
2018-07-22T01:43:40.130Z,0.00
2018-07-22T01:44:40.109Z,0.00
2018-07-22T01:45:40.094Z,0.00
2018-07-22T01:46:40.075Z,0.00
2018-07-22T01:47:40.057Z,0.00
2018-07-22T01:48:40.038Z,0.00
2018-07-22T01:49:40.022Z,0.00
2018-07-22T01:50:40.002Z,0.00
2018-07-22T01:51:40.735Z,0.00
2018-07-22T01:52:39.968Z,0.00
2018-07-22T01:53:39.949Z,0.00
2018-07-22T01:54:39.931Z,0.00
2018-07-22T01:55:39.912Z,0.00
2018-07-22T01:56:39.895Z,0.00
2018-07-22T01:57:39.876Z,0.00
2018-07-22T01:58:39.860Z,0.00
2018-07-22T01:59:39.843Z,0.00
2018-07-22T02:00:39.824Z,0.00
2018-07-22T02:01:39.896Z,0.00
2018-07-22T02:02:40.539Z,0.00
2018-07-22T02:03:39.778Z,0.00
2018-07-22T02:04:39.751Z,0.00
2018-07-22T02:05:39.734Z,0.00
2018-07-22T02:06:39.716Z,0.00
2018-07-22T02:07:39.697Z,0.00
2018-07-22T02:08:39.680Z,0.00
2018-07-22T02:09:39.662Z,0.00
2018-07-22T02:10:39.645Z,0.00
2018-07-22T02:11:39.626Z,0.00
2018-07-22T02:12:39.607Z,0.00
2018-07-22T02:13:39.589Z,0.00
2018-07-22T02:14:39.572Z,0.00
2018-07-22T02:15:39.553Z,0.00
2018-07-22T02:16:39.536Z,0.00
2018-07-22T02:17:39.517Z,0.00
2018-07-22T02:18:39.498Z,0.00
2018-07-22T02:19:39.479Z,0.00
2018-07-22T02:20:39.462Z,0.00
2018-07-22T02:21:39.445Z,0.00
2018-07-22T02:22:39.426Z,0.00
2018-07-22T02:23:40.909Z,0.00
2018-07-22T02:24:39.389Z,0.00
2018-07-22T02:25:39.372Z,0.00
2018-07-22T02:26:39.354Z,0.00
2018-07-22T02:27:39.334Z,0.00
2018-07-22T02:28:39.318Z,0.00
2018-07-22T02:29:39.300Z,0.00
2018-07-22T02:30:39.285Z,0.00
2018-07-22T02:31:39.263Z,0.00
2018-07-22T02:32:39.245Z,0.00
2018-07-22T02:33:39.228Z,0.00
2018-07-22T02:34:39.209Z,0.00
2018-07-22T02:35:39.195Z,0.00
2018-07-22T02:36:39.173Z,0.00
2018-07-22T02:37:39.154Z,0.00
2018-07-22T02:38:39.137Z,0.00
2018-07-22T02:39:39.118Z,0.00
2018-07-22T02:40:39.101Z,0.00
2018-07-22T02:41:39.082Z,0.00
2018-07-22T02:42:39.070Z,0.00
2018-07-22T02:43:39.045Z,0.00
2018-07-22T02:44:39.028Z,0.00
2018-07-22T02:45:39.011Z,0.00
2018-07-22T02:46:38.997Z,0.00
2018-07-22T02:47:38.975Z,0.00
2018-07-22T02:48:38.957Z,0.00
2018-07-22T02:49:38.939Z,0.00
2018-07-22T02:50:41.172Z,0.00
2018-07-22T02:51:38.905Z,0.00
2018-07-22T02:52:38.883Z,0.00
2018-07-22T02:53:38.864Z,0.00
2018-07-22T02:54:38.871Z,0.00
2018-07-22T02:55:38.831Z,0.00
2018-07-22T02:56:38.811Z,0.00
2018-07-22T02:57:38.793Z,0.00
2018-07-22T02:58:38.775Z,0.00
2018-07-22T02:59:38.756Z,0.00
2018-07-22T03:00:38.738Z,0.00
2018-07-22T03:01:38.740Z,0.00
2018-07-22T03:02:38.703Z,0.00
2018-07-22T03:03:38.685Z,0.00
2018-07-22T03:04:38.666Z,0.00
2018-07-22T03:05:38.649Z,0.00
2018-07-22T03:06:38.631Z,0.00
2018-07-22T03:07:38.611Z,0.00
2018-07-22T03:08:38.594Z,0.00
2018-07-22T03:09:38.576Z,0.00
2018-07-22T03:10:38.558Z,0.00
2018-07-22T03:11:38.539Z,0.00
2018-07-22T03:12:38.522Z,0.00
2018-07-22T03:13:38.505Z,0.00
2018-07-22T03:14:38.485Z,0.00
2018-07-22T03:15:38.468Z,0.00
2018-07-22T03:16:38.450Z,0.00
2018-07-22T03:17:38.433Z,0.00
2018-07-22T03:18:38.414Z,0.00
2018-07-22T03:19:38.395Z,0.00
2018-07-22T03:20:38.377Z,0.00
2018-07-22T03:21:38.359Z,0.00
2018-07-22T03:22:38.341Z,0.00
2018-07-22T03:23:38.325Z,0.00
2018-07-22T03:24:38.306Z,0.00
2018-07-22T03:25:38.289Z,0.00
2018-07-22T03:26:38.270Z,0.00
2018-07-22T03:27:38.255Z,4.00
2018-07-22T03:28:38.233Z,4.00
2018-07-22T03:29:38.218Z,4.00
2018-07-22T03:30:38.200Z,0.00
2018-07-22T03:31:38.179Z,0.00
2018-07-22T03:32:38.161Z,4.00
2018-07-22T03:33:38.144Z,4.00
2018-07-22T03:34:38.127Z,4.00
2018-07-22T03:35:38.107Z,4.00
2018-07-22T03:36:38.090Z,4.00
2018-07-22T03:37:38.072Z,8.00
2018-07-22T03:38:38.057Z,8.00
2018-07-22T03:39:38.036Z,8.00
2018-07-22T03:40:38.022Z,8.00
2018-07-22T03:41:38.001Z,8.00
2018-07-22T03:42:37.986Z,8.00
2018-07-22T03:43:37.964Z,12.00
2018-07-22T03:44:37.947Z,12.00
2018-07-22T03:45:37.933Z,16.00
2018-07-22T03:46:37.913Z,16.00
2018-07-22T03:47:37.897Z,16.00
2018-07-22T03:48:37.877Z,20.00
2018-07-22T03:49:37.859Z,20.00
2018-07-22T03:50:37.842Z,20.00
2018-07-22T03:51:37.823Z,24.00
2018-07-22T03:52:37.804Z,28.00
2018-07-22T03:53:37.788Z,32.00
2018-07-22T03:54:37.772Z,36.00
2018-07-22T03:55:37.752Z,36.00
2018-07-22T03:56:37.734Z,40.00
2018-07-22T03:57:37.715Z,44.00
2018-07-22T03:58:37.699Z,44.00
2018-07-22T03:59:37.680Z,52.00
2018-07-22T04:00:37.663Z,56.00
2018-07-22T04:01:37.645Z,56.00
2018-07-22T04:02:37.627Z,60.00
2018-07-22T04:03:37.608Z,68.00
2018-07-22T04:04:37.601Z,72.00
2018-07-22T04:05:37.574Z,72.00
2018-07-22T04:06:37.557Z,76.00
2018-07-22T04:07:37.539Z,84.00
2018-07-22T04:08:37.521Z,92.00
2018-07-22T04:09:37.503Z,100.00
2018-07-22T04:10:37.487Z,112.00
2018-07-22T04:11:37.466Z,116.00
2018-07-22T04:12:37.450Z,128.00
2018-07-22T04:13:37.438Z,140.00
2018-07-22T04:14:37.414Z,152.00
2018-07-22T04:15:37.396Z,160.00
2018-07-22T04:16:37.378Z,172.00
2018-07-22T04:17:37.362Z,180.00
2018-07-22T04:18:37.344Z,192.00
2018-07-22T04:19:37.326Z,200.00
2018-07-22T04:20:37.308Z,208.00
2018-07-22T04:21:37.290Z,216.00
2018-07-22T04:22:37.272Z,228.00
2018-07-22T04:23:37.254Z,232.00
2018-07-22T04:24:37.237Z,240.00
2018-07-22T04:25:37.220Z,244.00
2018-07-22T04:26:37.202Z,252.00
2018-07-22T04:27:37.183Z,256.00
2018-07-22T04:28:37.165Z,268.00
2018-07-22T04:29:37.148Z,276.00
2018-07-22T04:30:37.132Z,280.00
2018-07-22T04:31:37.117Z,284.00
2018-07-22T04:32:37.096Z,292.00
2018-07-22T04:33:37.077Z,296.00
2018-07-22T04:34:37.063Z,296.00
2018-07-22T04:35:37.042Z,292.00
2018-07-22T04:36:37.026Z,288.00
2018-07-22T04:37:37.006Z,284.00
2018-07-22T04:38:36.989Z,292.00
2018-07-22T04:39:36.970Z,308.00
2018-07-22T04:40:36.952Z,316.00
2018-07-22T04:41:36.935Z,324.00
2018-07-22T04:42:36.918Z,328.00
2018-07-22T04:43:36.899Z,328.00
2018-07-22T04:44:36.881Z,328.00
2018-07-22T04:45:36.865Z,328.00
2018-07-22T04:46:36.851Z,336.00
2018-07-22T04:47:36.830Z,348.00
2018-07-22T04:48:36.812Z,352.00
2018-07-22T04:49:36.795Z,364.00
2018-07-22T04:50:36.777Z,368.00
2018-07-22T04:51:36.761Z,380.00
2018-07-22T04:52:36.741Z,392.00
2018-07-22T04:53:36.829Z,404.00
2018-07-22T04:54:36.706Z,412.00
2018-07-22T04:55:37.440Z,420.00
2018-07-22T04:56:36.679Z,428.00
2018-07-22T04:57:36.651Z,440.00
2018-07-22T04:58:36.635Z,452.00
2018-07-22T04:59:36.617Z,460.00
2018-07-22T05:00:36.599Z,468.00
2018-07-22T05:01:36.581Z,480.00
2018-07-22T05:02:36.564Z,488.00
2018-07-22T05:03:36.545Z,496.00
2018-07-22T05:04:36.528Z,508.00
2018-07-22T05:05:36.510Z,512.00
2018-07-22T05:06:36.498Z,520.00
2018-07-22T05:07:36.475Z,524.00
2018-07-22T05:08:36.456Z,532.00
2018-07-22T05:09:36.439Z,536.00
2018-07-22T05:10:36.423Z,540.00
2018-07-22T05:11:36.403Z,544.00
2018-07-22T05:12:36.389Z,548.00
2018-07-22T05:13:36.368Z,552.00
2018-07-22T05:14:36.354Z,552.00
2018-07-22T05:15:36.332Z,560.00
2018-07-22T05:16:36.316Z,560.00
2018-07-22T05:17:36.297Z,564.00
2018-07-22T05:18:36.283Z,568.00
2018-07-22T05:19:36.265Z,576.00
2018-07-22T05:20:36.244Z,580.00
2018-07-22T05:21:36.228Z,584.00
2018-07-22T05:22:36.212Z,588.00
2018-07-22T05:23:36.192Z,592.00
2018-07-22T05:24:36.173Z,600.00
2018-07-22T05:25:36.160Z,608.00
2018-07-22T05:26:36.144Z,608.00
2018-07-22T05:27:36.121Z,612.00
2018-07-22T05:28:36.106Z,620.00
2018-07-22T05:29:36.088Z,628.00
2018-07-22T05:30:36.068Z,636.00
2018-07-22T05:31:36.050Z,644.00
2018-07-22T05:32:36.035Z,648.00
2018-07-22T05:33:36.016Z,660.00
2018-07-22T05:34:36.006Z,664.00
2018-07-22T05:35:35.986Z,668.00
2018-07-22T05:36:35.962Z,676.00
2018-07-22T05:37:35.944Z,684.00
2018-07-22T05:38:35.927Z,696.00
2018-07-22T05:39:35.913Z,712.00
2018-07-22T05:40:35.891Z,724.00
2018-07-22T05:41:35.876Z,736.00
2018-07-22T05:42:35.856Z,744.00
2018-07-22T05:43:35.837Z,752.00
2018-07-22T05:44:35.824Z,756.00
2018-07-22T05:45:35.803Z,756.00
2018-07-22T05:46:35.786Z,756.00
2018-07-22T05:47:35.768Z,756.00
2018-07-22T05:48:35.750Z,760.00
2018-07-22T05:49:35.731Z,756.00
2018-07-22T05:50:35.715Z,756.00
2018-07-22T05:51:35.697Z,760.00
2018-07-22T05:52:35.679Z,764.00
2018-07-22T05:53:35.663Z,768.00
2018-07-22T05:54:36.396Z,768.00
2018-07-22T05:55:35.628Z,752.00
2018-07-22T05:56:35.611Z,752.00
2018-07-22T05:57:35.592Z,760.00
2018-07-22T05:58:35.575Z,784.00
2018-07-22T05:59:35.556Z,804.00
2018-07-22T06:00:35.542Z,808.00
2018-07-22T06:01:35.522Z,828.00
2018-07-22T06:02:35.504Z,852.00
2018-07-22T06:03:35.487Z,860.00
2018-07-22T06:04:35.470Z,884.00
2018-07-22T06:05:35.456Z,896.00
2018-07-22T06:06:35.436Z,908.00
2018-07-22T06:07:35.418Z,864.00
2018-07-22T06:08:35.401Z,860.00
2018-07-22T06:09:35.383Z,868.00
2018-07-22T06:10:35.366Z,868.00
2018-07-22T06:11:35.349Z,848.00
2018-07-22T06:12:35.331Z,840.00
2018-07-22T06:13:35.315Z,828.00
2018-07-22T06:14:35.298Z,820.00
2018-07-22T06:15:35.281Z,812.00
2018-07-22T06:16:35.268Z,812.00
2018-07-22T06:17:35.252Z,816.00
2018-07-22T06:18:35.231Z,832.00
2018-07-22T06:19:35.214Z,864.00
2018-07-22T06:20:35.195Z,916.00
2018-07-22T06:21:35.180Z,928.00
2018-07-22T06:22:35.165Z,928.00
2018-07-22T06:23:35.144Z,920.00
2018-07-22T06:24:35.126Z,932.00
2018-07-22T06:25:35.111Z,948.00
2018-07-22T06:26:35.094Z,900.00
2018-07-22T06:27:35.075Z,868.00
2018-07-22T06:28:35.059Z,856.00
2018-07-22T06:29:35.043Z,860.00
2018-07-22T06:30:35.027Z,892.00
2018-07-22T06:31:35.008Z,856.00
2018-07-22T06:32:36.494Z,856.00
2018-07-22T06:33:34.973Z,892.00
2018-07-22T06:34:34.957Z,876.00
2018-07-22T06:35:34.939Z,932.00
2018-07-22T06:36:34.923Z,888.00
2018-07-22T06:37:34.904Z,884.00
2018-07-22T06:38:34.888Z,932.00
2018-07-22T06:39:34.870Z,936.00
2018-07-22T06:40:34.853Z,916.00
2018-07-22T06:41:34.840Z,900.00
2018-07-22T06:42:34.822Z,936.00
2018-07-22T06:43:34.802Z,936.00
2018-07-22T06:44:34.783Z,932.00
2018-07-22T06:45:34.767Z,928.00
2018-07-22T06:46:34.772Z,924.00
2018-07-22T06:47:34.732Z,924.00
2018-07-22T06:48:34.715Z,924.00
2018-07-22T06:49:34.699Z,924.00
2018-07-22T06:50:34.681Z,924.00
2018-07-22T06:51:34.666Z,920.00
2018-07-22T06:52:34.646Z,924.00
2018-07-22T06:53:34.701Z,928.00
2018-07-22T06:54:35.365Z,928.00
2018-07-22T06:55:34.596Z,936.00
2018-07-22T06:56:34.579Z,936.00
2018-07-22T06:57:34.561Z,936.00
2018-07-22T06:58:34.545Z,936.00
2018-07-22T06:59:34.528Z,960.00
2018-07-22T07:00:34.510Z,944.00
2018-07-22T07:01:34.493Z,932.00
2018-07-22T07:02:34.477Z,936.00
2018-07-22T07:03:34.459Z,936.00
2018-07-22T07:04:34.443Z,936.00
2018-07-22T07:05:34.428Z,948.00
2018-07-22T07:06:34.408Z,944.00
2018-07-22T07:07:34.395Z,948.00
2018-07-22T07:08:34.458Z,944.00
2018-07-22T07:09:34.359Z,944.00
2018-07-22T07:10:34.341Z,948.00
2018-07-22T07:11:34.327Z,952.00
2018-07-22T07:12:34.309Z,956.00
2018-07-22T07:13:34.292Z,960.00
2018-07-22T07:14:34.276Z,952.00
2018-07-22T07:15:34.257Z,956.00
2018-07-22T07:16:34.241Z,956.00
2018-07-22T07:17:34.227Z,960.00
2018-07-22T07:18:34.208Z,960.00
2018-07-22T07:19:34.193Z,968.00
2018-07-22T07:20:34.174Z,972.00
2018-07-22T07:21:34.160Z,968.00
2018-07-22T07:22:34.142Z,980.00
2018-07-22T07:23:34.125Z,984.00
2018-07-22T07:24:34.108Z,1000.00
2018-07-22T07:25:34.098Z,988.00
2018-07-22T07:26:34.097Z,1044.00
2018-07-22T07:27:34.058Z,1072.00
2018-07-22T07:28:34.046Z,1036.00
2018-07-22T07:29:34.025Z,1012.00
2018-07-22T07:30:34.009Z,1028.00
2018-07-22T07:31:33.994Z,1060.00
2018-07-22T07:32:33.976Z,1064.00
2018-07-22T07:33:33.987Z,1056.00
2018-07-22T07:34:33.943Z,1088.00
2018-07-22T07:35:33.926Z,1072.00
2018-07-22T07:36:33.911Z,1080.00
2018-07-22T07:37:33.893Z,1076.00
2018-07-22T07:38:33.880Z,1060.00
2018-07-22T07:39:33.860Z,1180.00
2018-07-22T07:40:34.595Z,1156.00
2018-07-22T07:41:33.829Z,1244.00
2018-07-22T07:42:33.814Z,1288.00
2018-07-22T07:43:33.796Z,1284.00
2018-07-22T07:44:33.782Z,1272.00
2018-07-22T07:45:33.762Z,1224.00
2018-07-22T07:46:33.748Z,1084.00
2018-07-22T07:47:33.730Z,1100.00
2018-07-22T07:48:33.715Z,1092.00
2018-07-22T07:49:33.700Z,1124.00
2018-07-22T07:50:33.684Z,1160.00
2018-07-22T07:51:33.667Z,1024.00
2018-07-22T07:52:33.650Z,1088.00
2018-07-22T07:53:33.636Z,1252.00
2018-07-22T07:54:33.621Z,1368.00
2018-07-22T07:55:33.603Z,1576.00
2018-07-22T07:56:33.586Z,1432.00
2018-07-22T07:57:33.574Z,1220.00
2018-07-22T07:58:33.558Z,1176.00
2018-07-22T07:59:33.539Z,1152.00
2018-07-22T08:00:33.522Z,1060.00
2018-07-22T08:01:33.507Z,1208.00
2018-07-22T08:02:33.491Z,1168.00
2018-07-22T08:03:33.475Z,1148.00
2018-07-22T08:04:33.459Z,1144.00
2018-07-22T08:05:33.503Z,1168.00
2018-07-22T08:06:33.427Z,1212.00
2018-07-22T08:07:33.412Z,1244.00
2018-07-22T08:08:33.397Z,1204.00
2018-07-22T08:09:33.379Z,1200.00
2018-07-22T08:10:33.364Z,1192.00
2018-07-22T08:11:33.358Z,1104.00
2018-07-22T08:12:33.332Z,1072.00
2018-07-22T08:13:33.317Z,1156.00
2018-07-22T08:14:33.300Z,1284.00
2018-07-22T08:15:33.286Z,1296.00
2018-07-22T08:16:33.269Z,1340.00
2018-07-22T08:17:33.253Z,1364.00
2018-07-22T08:18:33.287Z,1388.00
2018-07-22T08:19:33.221Z,1400.00
2018-07-22T08:20:33.206Z,1396.00
2018-07-22T08:21:33.275Z,1316.00
2018-07-22T08:22:33.173Z,1220.00
2018-07-22T08:23:33.157Z,1260.00
2018-07-22T08:24:33.141Z,1528.00
2018-07-22T08:25:33.127Z,1604.00
2018-07-22T08:26:33.110Z,1704.00
2018-07-22T08:27:33.094Z,1808.00
2018-07-22T08:28:33.079Z,1828.00
2018-07-22T08:29:33.064Z,1884.00
2018-07-22T08:30:33.084Z,2140.00
2018-07-22T08:31:33.032Z,2244.00
2018-07-22T08:32:33.017Z,2216.00
2018-07-22T08:33:33.002Z,2288.00
2018-07-22T08:34:32.985Z,2300.00
2018-07-22T08:35:32.971Z,2248.00
2018-07-22T08:36:32.955Z,2164.00
2018-07-22T08:37:32.941Z,2312.00
2018-07-22T08:38:32.924Z,2404.00
2018-07-22T08:39:32.909Z,2668.00
2018-07-22T08:40:32.894Z,2980.00
2018-07-22T08:41:32.930Z,3052.00
2018-07-22T08:42:32.866Z,3052.00
2018-07-22T08:43:32.849Z,3048.00
2018-07-22T08:44:32.833Z,3048.00
2018-07-22T08:45:32.818Z,3092.00
2018-07-22T08:46:32.805Z,3024.00
2018-07-22T08:47:32.824Z,2884.00
2018-07-22T08:48:32.774Z,2728.00
2018-07-22T08:49:33.514Z,2720.00
2018-07-22T08:50:32.745Z,2836.00
2018-07-22T08:51:32.731Z,2972.00
2018-07-22T08:52:32.716Z,2992.00
2018-07-22T08:53:32.703Z,3008.00
2018-07-22T08:54:32.691Z,2936.00
2018-07-22T08:55:32.674Z,2804.00
2018-07-22T08:56:32.659Z,2664.00
2018-07-22T08:57:32.646Z,2648.00
2018-07-22T08:58:32.631Z,2708.00
2018-07-22T08:59:32.617Z,2820.00
2018-07-22T09:00:32.603Z,2736.00
2018-07-22T09:01:32.589Z,2688.00
2018-07-22T09:02:32.575Z,2728.00
2018-07-22T09:03:32.559Z,2784.00
2018-07-22T09:04:32.545Z,2864.00
2018-07-22T09:05:32.557Z,2868.00
2018-07-22T09:06:32.518Z,2856.00
2018-07-22T09:07:32.501Z,2956.00
2018-07-22T09:08:32.488Z,3028.00
2018-07-22T09:09:32.475Z,3072.00
2018-07-22T09:10:32.461Z,3164.00
2018-07-22T09:11:32.445Z,3184.00
2018-07-22T09:12:32.433Z,3204.00
2018-07-22T09:13:32.417Z,3220.00
2018-07-22T09:14:32.405Z,3204.00
2018-07-22T09:15:32.389Z,3220.00
2018-07-22T09:16:32.375Z,3184.00
2018-07-22T09:17:32.361Z,3176.00
2018-07-22T09:18:32.347Z,3188.00
2018-07-22T09:19:32.337Z,3020.00
2018-07-22T09:20:32.319Z,2908.00
2018-07-22T09:21:32.309Z,2836.00
2018-07-22T09:22:32.294Z,2800.00
2018-07-22T09:23:32.278Z,2860.00
2018-07-22T09:24:32.267Z,2888.00
2018-07-22T09:25:32.250Z,2924.00
2018-07-22T09:26:32.237Z,2952.00
2018-07-22T09:27:32.223Z,3016.00
2018-07-22T09:28:32.209Z,3124.00
2018-07-22T09:29:32.195Z,3248.00
2018-07-22T09:30:32.181Z,3320.00
2018-07-22T09:31:32.168Z,3236.00
2018-07-22T09:32:32.153Z,3300.00
2018-07-22T09:33:32.141Z,3312.00
2018-07-22T09:34:32.127Z,3396.00
2018-07-22T09:35:32.113Z,3404.00
2018-07-22T09:36:32.145Z,3424.00
2018-07-22T09:37:32.088Z,3432.00
2018-07-22T09:38:32.074Z,3368.00
2018-07-22T09:39:32.063Z,3356.00
2018-07-22T09:40:32.045Z,3352.00
2018-07-22T09:41:32.034Z,3312.00
2018-07-22T09:42:32.020Z,3284.00
2018-07-22T09:43:32.006Z,3288.00
2018-07-22T09:44:31.992Z,3260.00
2018-07-22T09:45:31.980Z,3240.00
2018-07-22T09:46:31.966Z,3120.00
2018-07-22T09:47:31.952Z,3048.00
2018-07-22T09:48:31.939Z,2980.00
2018-07-22T09:49:31.925Z,2980.00
2018-07-22T09:50:31.912Z,2932.00
2018-07-22T09:51:31.897Z,2940.00
2018-07-22T09:52:31.884Z,2920.00
2018-07-22T09:53:31.871Z,2836.00
2018-07-22T09:54:31.858Z,2820.00
2018-07-22T09:55:31.844Z,2884.00
2018-07-22T09:56:31.831Z,2784.00
2018-07-22T09:57:31.820Z,2852.00
2018-07-22T09:58:31.813Z,2964.00
2018-07-22T09:59:31.792Z,3128.00
2018-07-22T10:00:31.778Z,3212.00
2018-07-22T10:01:31.763Z,3276.00
2018-07-22T10:02:31.750Z,3248.00
2018-07-22T10:03:31.735Z,3284.00
2018-07-22T10:04:31.778Z,3228.00
2018-07-22T10:05:31.708Z,3360.00
2018-07-22T10:06:31.696Z,3388.00
2018-07-22T10:07:31.680Z,3376.00
2018-07-22T10:08:31.666Z,3356.00
2018-07-22T10:09:31.653Z,3372.00
2018-07-22T10:10:31.641Z,3384.00
2018-07-22T10:11:31.629Z,3396.00
2018-07-22T10:12:31.613Z,3420.00
2018-07-22T10:13:31.601Z,3432.00
2018-07-22T10:14:31.680Z,3476.00
2018-07-22T10:15:31.572Z,3512.00
2018-07-22T10:16:31.560Z,3572.00
2018-07-22T10:17:31.590Z,3628.00
2018-07-22T10:18:31.534Z,3668.00
2018-07-22T10:19:31.521Z,3664.00
2018-07-22T10:20:31.508Z,3636.00
2018-07-22T10:21:31.496Z,3608.00
2018-07-22T10:22:31.483Z,3588.00
2018-07-22T10:23:31.469Z,3568.00
2018-07-22T10:24:31.457Z,3572.00
2018-07-22T10:25:32.947Z,3596.00
2018-07-22T10:26:31.432Z,3636.00
2018-07-22T10:27:31.418Z,3672.00
2018-07-22T10:28:31.414Z,3688.00
2018-07-22T10:29:31.392Z,3700.00
2018-07-22T10:30:31.381Z,3728.00
2018-07-22T10:31:31.366Z,3760.00
2018-07-22T10:32:31.353Z,3756.00
2018-07-22T10:33:31.342Z,3764.00
2018-07-22T10:34:31.328Z,3792.00
2018-07-22T10:35:31.316Z,3832.00
2018-07-22T10:36:31.303Z,3852.00
2018-07-22T10:37:31.291Z,3844.00
2018-07-22T10:38:31.279Z,3912.00
2018-07-22T10:39:31.264Z,3964.00
2018-07-22T10:40:31.252Z,4000.00
2018-07-22T10:41:31.239Z,4000.00
2018-07-22T10:42:32.728Z,3964.00
2018-07-22T10:43:31.216Z,3868.00
2018-07-22T10:44:31.201Z,3764.00
2018-07-22T10:45:31.188Z,3656.00
2018-07-22T10:46:31.176Z,3564.00
2018-07-22T10:47:31.163Z,3524.00
2018-07-22T10:48:31.902Z,3504.00
2018-07-22T10:49:31.138Z,3484.00
2018-07-22T10:50:31.127Z,3460.00
2018-07-22T10:51:31.114Z,3432.00
2018-07-22T10:52:31.102Z,3380.00
2018-07-22T10:53:31.089Z,3336.00
2018-07-22T10:54:31.076Z,3304.00
2018-07-22T10:55:31.062Z,3292.00
2018-07-22T10:56:31.054Z,3312.00
2018-07-22T10:57:31.038Z,3352.00
2018-07-22T10:58:31.025Z,3384.00
2018-07-22T10:59:31.016Z,3404.00
2018-07-22T11:00:31.000Z,3412.00
2018-07-22T11:01:30.988Z,3392.00
2018-07-22T11:02:31.048Z,3364.00
2018-07-22T11:03:30.963Z,3348.00
2018-07-22T11:04:30.948Z,3332.00
2018-07-22T11:05:30.937Z,3304.00
2018-07-22T11:06:30.924Z,3284.00
2018-07-22T11:07:30.913Z,3288.00
2018-07-22T11:08:30.898Z,3312.00
2018-07-22T11:09:30.885Z,3360.00
2018-07-22T11:10:30.872Z,3424.00
2018-07-22T11:11:30.858Z,3408.00
2018-07-22T11:12:30.847Z,3360.00
2018-07-22T11:13:30.834Z,3288.00
2018-07-22T11:14:30.837Z,3204.00
2018-07-22T11:15:30.807Z,3136.00
2018-07-22T11:16:30.796Z,3092.00
2018-07-22T11:17:30.782Z,3060.00
2018-07-22T11:18:30.770Z,3032.00
2018-07-22T11:19:30.757Z,3008.00
2018-07-22T11:20:30.744Z,2972.00
2018-07-22T11:21:30.732Z,2940.00
2018-07-22T11:22:30.719Z,2888.00
2018-07-22T11:23:30.707Z,2864.00
2018-07-22T11:24:30.694Z,2864.00
2018-07-22T11:25:30.682Z,2868.00
2018-07-22T11:26:30.673Z,2884.00
2018-07-22T11:27:30.656Z,2892.00
2018-07-22T11:28:30.644Z,2892.00
2018-07-22T11:29:30.631Z,2872.00
2018-07-22T11:30:30.622Z,2836.00
2018-07-22T11:31:31.355Z,2808.00
2018-07-22T11:32:30.593Z,2772.00
2018-07-22T11:33:30.581Z,2736.00
2018-07-22T11:34:30.568Z,2708.00
2018-07-22T11:35:30.555Z,2692.00
2018-07-22T11:36:30.542Z,2676.00
2018-07-22T11:37:30.530Z,2672.00
2018-07-22T11:38:30.520Z,2684.00
2018-07-22T11:39:30.504Z,2696.00
2018-07-22T11:40:30.491Z,2712.00
2018-07-22T11:41:30.480Z,2728.00
2018-07-22T11:42:30.469Z,2748.00
2018-07-22T11:43:30.455Z,2752.00
2018-07-22T11:44:30.441Z,2736.00
2018-07-22T11:45:30.428Z,2708.00
2018-07-22T11:46:30.417Z,2664.00
2018-07-22T11:47:33.408Z,2636.00
2018-07-22T11:48:30.391Z,2636.00
2018-07-22T11:49:30.378Z,2664.00
2018-07-22T11:50:30.410Z,2720.00
2018-07-22T11:51:30.353Z,2776.00
2018-07-22T11:52:30.341Z,2816.00
2018-07-22T11:53:31.079Z,2856.00
2018-07-22T11:54:30.317Z,2884.00
2018-07-22T11:55:30.302Z,2892.00
2018-07-22T11:56:30.295Z,2888.00
2018-07-22T11:57:30.279Z,2892.00
2018-07-22T11:58:30.269Z,2884.00
2018-07-22T11:59:30.253Z,2872.00
2018-07-22T12:00:30.241Z,2892.00
2018-07-22T12:01:30.314Z,2944.00
2018-07-22T12:02:30.216Z,2988.00
2018-07-22T12:03:30.203Z,3040.00
2018-07-22T12:04:30.192Z,3088.00
2018-07-22T12:05:30.180Z,3120.00
2018-07-22T12:06:30.167Z,3120.00
2018-07-22T12:07:30.155Z,3124.00
2018-07-22T12:08:30.143Z,3104.00
2018-07-22T12:09:30.131Z,3040.00
2018-07-22T12:10:30.119Z,2980.00
2018-07-22T12:11:30.106Z,2912.00
2018-07-22T12:12:30.120Z,2868.00
2018-07-22T12:13:30.084Z,2820.00
2018-07-22T12:14:30.071Z,2792.00
2018-07-22T12:15:30.058Z,2796.00
2018-07-22T12:16:30.047Z,2764.00
2018-07-22T12:17:30.036Z,2788.00
2018-07-22T12:18:30.024Z,2852.00
2018-07-22T12:19:30.010Z,2868.00
2018-07-22T12:20:30.000Z,2924.00
2018-07-22T12:21:29.988Z,2960.00
2018-07-22T12:22:29.974Z,2944.00
2018-07-22T12:23:29.962Z,2944.00
2018-07-22T12:24:29.950Z,2884.00
2018-07-22T12:25:29.938Z,2972.00
2018-07-22T12:26:29.927Z,3132.00
2018-07-22T12:27:29.914Z,3308.00
2018-07-22T12:28:29.904Z,3324.00
2018-07-22T12:29:29.891Z,3432.00
2018-07-22T12:30:29.881Z,3596.00
2018-07-22T12:31:29.867Z,3836.00
2018-07-22T12:32:29.860Z,4060.00
2018-07-22T12:33:29.845Z,4096.00